sensor_id;sensor_type;location;lat;lon;timestamp;P1;durP1;ratioP1;P2;durP2;ratioP2
22606;SDS011;11470;20.968;105.834;2023-02-28T00:04:58;113.95;;;66.57;;
22606;SDS011;11470;20.968;105.834;2023-02-28T00:10:06;109.70;;;61.65;;
22606;SDS011;11470;20.968;105.834;2023-02-28T00:15:21;102.40;;;61.03;;
22606;SDS011;11470;20.968;105.834;2023-02-28T00:20:27;84.15;;;50.92;;
22606;SDS011;11470;20.968;105.834;2023-02-28T00:25:34;91.18;;;54.45;;
22606;SDS011;11470;20.968;105.834;2023-02-28T00:35:47;117.25;;;64.60;;
22606;SDS011;11470;20.968;105.834;2023-02-28T00:40:53;102.13;;;60.47;;
22606;SDS011;11470;20.968;105.834;2023-02-28T00:45:59;97.28;;;57.50;;
22606;SDS011;11470;20.968;105.834;2023-02-28T00:51:06;103.32;;;57.58;;
22606;SDS011;11470;20.968;105.834;2023-02-28T00:56:13;79.88;;;45.10;;
22606;SDS011;11470;20.968;105.834;2023-02-28T01:07:01;87.78;;;52.13;;
22606;SDS011;11470;20.968;105.834;2023-02-28T01:17:13;91.93;;;52.83;;
22606;SDS011;11470;20.968;105.834;2023-02-28T01:22:35;88.40;;;51.22;;
22606;SDS011;11470;20.968;105.834;2023-02-28T01:27:42;82.13;;;41.28;;
22606;SDS011;11470;20.968;105.834;2023-02-28T01:37:55;80.00;;;46.17;;
22606;SDS011;11470;20.968;105.834;2023-02-28T01:43:22;93.43;;;55.40;;
22606;SDS011;11470;20.968;105.834;2023-02-28T01:48:34;56.75;;;33.83;;
22606;SDS011;11470;20.968;105.834;2023-02-28T01:53:45;88.68;;;44.75;;
22606;SDS011;11470;20.968;105.834;2023-02-28T01:58:59;93.10;;;51.43;;
22606;SDS011;11470;20.968;105.834;2023-02-28T02:09:11;86.05;;;43.88;;
22606;SDS011;11470;20.968;105.834;2023-02-28T02:30:55;88.72;;;48.88;;
22606;SDS011;11470;20.968;105.834;2023-02-28T02:41:40;88.13;;;50.35;;
22606;SDS011;11470;20.968;105.834;2023-02-28T02:47:10;87.55;;;45.60;;
22606;SDS011;11470;20.968;105.834;2023-02-28T02:52:23;101.90;;;51.75;;
22606;SDS011;11470;20.968;105.834;2023-02-28T03:03:07;82.18;;;47.70;;
22606;SDS011;11470;20.968;105.834;2023-02-28T03:08:19;87.07;;;48.17;;
22606;SDS011;11470;20.968;105.834;2023-02-28T03:14:09;91.07;;;52.30;;
22606;SDS011;11470;20.968;105.834;2023-02-28T03:24:23;175.55;;;66.88;;
22606;SDS011;11470;20.968;105.834;2023-02-28T03:29:45;194.10;;;78.28;;
22606;SDS011;11470;20.968;105.834;2023-02-28T03:35:00;397.02;;;137.13;;
22606;SDS011;11470;20.968;105.834;2023-02-28T03:40:23;338.55;;;107.97;;
22606;SDS011;11470;20.968;105.834;2023-02-28T03:45:35;163.10;;;59.20;;
22606;SDS011;11470;20.968;105.834;2023-02-28T03:50:44;173.63;;;61.05;;
22606;SDS011;11470;20.968;105.834;2023-02-28T03:55:56;150.30;;;62.42;;
22606;SDS011;11470;20.968;105.834;2023-02-28T04:01:35;114.40;;;55.33;;
22606;SDS011;11470;20.968;105.834;2023-02-28T04:06:49;104.70;;;55.20;;
22606;SDS011;11470;20.968;105.834;2023-02-28T04:11:58;97.85;;;52.13;;
22606;SDS011;11470;20.968;105.834;2023-02-28T04:17:04;110.38;;;63.72;;
22606;SDS011;11470;20.968;105.834;2023-02-28T04:22:11;97.72;;;56.17;;
22606;SDS011;11470;20.968;105.834;2023-02-28T04:27:26;96.55;;;56.50;;
22606;SDS011;11470;20.968;105.834;2023-02-28T04:32:34;91.90;;;53.85;;
22606;SDS011;11470;20.968;105.834;2023-02-28T04:37:41;85.53;;;49.85;;
22606;SDS011;11470;20.968;105.834;2023-02-28T04:42:52;84.65;;;50.80;;
22606;SDS011;11470;20.968;105.834;2023-02-28T04:47:58;76.43;;;47.10;;
22606;SDS011;11470;20.968;105.834;2023-02-28T04:53:05;84.47;;;47.78;;
22606;SDS011;11470;20.968;105.834;2023-02-28T04:58:12;87.97;;;50.85;;
22606;SDS011;11470;20.968;105.834;2023-02-28T05:03:20;74.07;;;47.95;;
22606;SDS011;11470;20.968;105.834;2023-02-28T05:08:31;64.97;;;42.33;;
22606;SDS011;11470;20.968;105.834;2023-02-28T05:18:42;70.70;;;44.67;;
22606;SDS011;11470;20.968;105.834;2023-02-28T05:29:56;73.70;;;44.30;;
22606;SDS011;11470;20.968;105.834;2023-02-28T05:35:04;75.97;;;41.75;;
22606;SDS011;11470;20.968;105.834;2023-02-28T05:40:13;59.50;;;38.08;;
22606;SDS011;11470;20.968;105.834;2023-02-28T05:45:20;56.53;;;32.33;;
22606;SDS011;11470;20.968;105.834;2023-02-28T05:50:29;89.45;;;52.55;;
22606;SDS011;11470;20.968;105.834;2023-02-28T05:55:38;49.13;;;20.10;;
22606;SDS011;11470;20.968;105.834;2023-02-28T06:00:45;81.65;;;51.42;;
22606;SDS011;11470;20.968;105.834;2023-02-28T06:05:53;84.90;;;48.40;;
22606;SDS011;11470;20.968;105.834;2023-02-28T06:11:03;82.93;;;52.05;;
22606;SDS011;11470;20.968;105.834;2023-02-28T06:16:11;80.18;;;50.88;;
22606;SDS011;11470;20.968;105.834;2023-02-28T06:21:18;79.57;;;51.28;;
22606;SDS011;11470;20.968;105.834;2023-02-28T06:26:24;83.13;;;51.13;;
22606;SDS011;11470;20.968;105.834;2023-02-28T06:32:11;79.28;;;51.33;;
22606;SDS011;11470;20.968;105.834;2023-02-28T06:37:18;76.30;;;46.60;;
22606;SDS011;11470;20.968;105.834;2023-02-28T06:42:25;59.72;;;38.72;;
22606;SDS011;11470;20.968;105.834;2023-02-28T06:47:33;38.88;;;21.10;;
22606;SDS011;11470;20.968;105.834;2023-02-28T06:52:40;63.45;;;39.33;;
22606;SDS011;11470;20.968;105.834;2023-02-28T06:57:47;62.50;;;39.38;;
22606;SDS011;11470;20.968;105.834;2023-02-28T07:02:54;66.72;;;40.00;;
22606;SDS011;11470;20.968;105.834;2023-02-28T07:08:03;59.42;;;30.25;;
22606;SDS011;11470;20.968;105.834;2023-02-28T07:13:10;90.07;;;54.53;;
22606;SDS011;11470;20.968;105.834;2023-02-28T07:18:16;59.95;;;32.13;;
22606;SDS011;11470;20.968;105.834;2023-02-28T07:23:42;53.63;;;24.02;;
22606;SDS011;11470;20.968;105.834;2023-02-28T07:29:05;88.25;;;53.53;;
22606;SDS011;11470;20.968;105.834;2023-02-28T07:34:14;59.70;;;38.38;;
22606;SDS011;11470;20.968;105.834;2023-02-28T07:39:21;62.60;;;39.67;;
22606;SDS011;11470;20.968;105.834;2023-02-28T07:44:27;70.72;;;46.55;;
22606;SDS011;11470;20.968;105.834;2023-02-28T07:49:40;81.97;;;53.60;;
22606;SDS011;11470;20.968;105.834;2023-02-28T07:54:46;57.55;;;27.20;;
22606;SDS011;11470;20.968;105.834;2023-02-28T08:00:10;78.28;;;51.70;;
22606;SDS011;11470;20.968;105.834;2023-02-28T08:05:27;82.03;;;53.78;;
22606;SDS011;11470;20.968;105.834;2023-02-28T08:10:37;66.18;;;33.50;;
22606;SDS011;11470;20.968;105.834;2023-02-28T08:21:11;84.13;;;50.40;;
22606;SDS011;11470;20.968;105.834;2023-02-28T08:26:18;45.03;;;25.00;;
22606;SDS011;11470;20.968;105.834;2023-02-28T08:31:26;78.43;;;40.75;;
22606;SDS011;11470;20.968;105.834;2023-02-28T08:36:32;69.05;;;37.97;;
22606;SDS011;11470;20.968;105.834;2023-02-28T08:41:39;70.18;;;39.08;;
22606;SDS011;11470;20.968;105.834;2023-02-28T08:46:49;54.72;;;27.85;;
22606;SDS011;11470;20.968;105.834;2023-02-28T08:51:57;72.20;;;46.38;;
22606;SDS011;11470;20.968;105.834;2023-02-28T08:57:03;76.75;;;47.78;;
22606;SDS011;11470;20.968;105.834;2023-02-28T09:02:12;72.60;;;44.63;;
22606;SDS011;11470;20.968;105.834;2023-02-28T09:07:18;64.97;;;41.97;;
22606;SDS011;11470;20.968;105.834;2023-02-28T09:12:25;72.03;;;44.17;;
22606;SDS011;11470;20.968;105.834;2023-02-28T09:17:32;69.40;;;44.83;;
22606;SDS011;11470;20.968;105.834;2023-02-28T09:22:39;70.38;;;42.13;;
22606;SDS011;11470;20.968;105.834;2023-02-28T09:27:45;67.15;;;40.45;;
22606;SDS011;11470;20.968;105.834;2023-02-28T09:32:53;61.78;;;39.47;;
22606;SDS011;11470;20.968;105.834;2023-02-28T09:37:59;71.40;;;40.78;;
22606;SDS011;11470;20.968;105.834;2023-02-28T09:43:09;67.30;;;42.17;;
22606;SDS011;11470;20.968;105.834;2023-02-28T09:48:20;65.50;;;40.03;;
22606;SDS011;11470;20.968;105.834;2023-02-28T09:53:35;69.10;;;38.85;;
22606;SDS011;11470;20.968;105.834;2023-02-28T09:58:54;66.63;;;42.38;;
22606;SDS011;11470;20.968;105.834;2023-02-28T10:09:30;63.72;;;36.17;;
22606;SDS011;11470;20.968;105.834;2023-02-28T10:14:39;72.28;;;40.70;;
22606;SDS011;11470;20.968;105.834;2023-02-28T10:25:36;73.35;;;40.28;;
22606;SDS011;11470;20.968;105.834;2023-02-28T10:30:50;93.75;;;58.83;;
22606;SDS011;11470;20.968;105.834;2023-02-28T10:35:58;99.45;;;57.05;;
22606;SDS011;11470;20.968;105.834;2023-02-28T10:41:06;86.00;;;50.25;;
22606;SDS011;11470;20.968;105.834;2023-02-28T10:46:18;153.70;;;93.43;;
22606;SDS011;11470;20.968;105.834;2023-02-28T10:51:37;153.20;;;96.60;;
22606;SDS011;11470;20.968;105.834;2023-02-28T11:02:30;170.50;;;105.43;;
22606;SDS011;11470;20.968;105.834;2023-02-28T11:07:39;198.35;;;126.65;;
22606;SDS011;11470;20.968;105.834;2023-02-28T11:12:55;180.53;;;113.20;;
22606;SDS011;11470;20.968;105.834;2023-02-28T11:18:55;301.00;;;190.57;;
22606;SDS011;11470;20.968;105.834;2023-02-28T11:24:07;380.58;;;238.50;;
22606;SDS011;11470;20.968;105.834;2023-02-28T11:29:32;397.88;;;266.17;;
22606;SDS011;11470;20.968;105.834;2023-02-28T11:34:42;187.05;;;109.30;;
22606;SDS011;11470;20.968;105.834;2023-02-28T11:39:50;393.80;;;257.23;;
22606;SDS011;11470;20.968;105.834;2023-02-28T11:55:52;531.75;;;332.90;;
22606;SDS011;11470;20.968;105.834;2023-02-28T12:06:50;693.58;;;397.00;;
22606;SDS011;11470;20.968;105.834;2023-02-28T12:23:47;290.17;;;147.60;;
22606;SDS011;11470;20.968;105.834;2023-02-28T12:29:25;378.50;;;216.35;;
22606;SDS011;11470;20.968;105.834;2023-02-28T12:36:03;720.65;;;389.48;;
22606;SDS011;11470;20.968;105.834;2023-02-28T12:41:18;708.88;;;395.50;;
22606;SDS011;11470;20.968;105.834;2023-02-28T12:51:50;666.60;;;370.45;;
22606;SDS011;11470;20.968;105.834;2023-02-28T13:13:45;577.28;;;288.52;;
22606;SDS011;11470;20.968;105.834;2023-02-28T13:18:53;442.73;;;253.52;;
22606;SDS011;11470;20.968;105.834;2023-02-28T13:29:56;208.82;;;108.93;;
22606;SDS011;11470;20.968;105.834;2023-02-28T13:40:32;439.38;;;232.98;;
22606;SDS011;11470;20.968;105.834;2023-02-28T13:46:03;407.80;;;226.93;;
22606;SDS011;11470;20.968;105.834;2023-02-28T13:56:55;234.35;;;119.70;;
22606;SDS011;11470;20.968;105.834;2023-02-28T14:02:20;364.00;;;191.35;;
22606;SDS011;11470;20.968;105.834;2023-02-28T14:07:44;303.45;;;156.70;;
22606;SDS011;11470;20.968;105.834;2023-02-28T14:13:00;256.13;;;133.90;;
22606;SDS011;11470;20.968;105.834;2023-02-28T14:19:10;317.77;;;171.52;;
22606;SDS011;11470;20.968;105.834;2023-02-28T14:45:36;238.30;;;128.93;;
22606;SDS011;11470;20.968;105.834;2023-02-28T14:50:48;208.88;;;111.95;;
22606;SDS011;11470;20.968;105.834;2023-02-28T14:56:05;166.15;;;89.90;;
22606;SDS011;11470;20.968;105.834;2023-02-28T15:01:25;216.73;;;117.28;;
22606;SDS011;11470;20.968;105.834;2023-02-28T15:06:33;192.23;;;102.65;;
22606;SDS011;11470;20.968;105.834;2023-02-28T15:11:39;184.25;;;98.28;;
22606;SDS011;11470;20.968;105.834;2023-02-28T15:16:48;180.13;;;95.85;;
22606;SDS011;11470;20.968;105.834;2023-02-28T15:22:15;165.55;;;90.93;;
22606;SDS011;11470;20.968;105.834;2023-02-28T15:27:29;176.50;;;94.55;;
22606;SDS011;11470;20.968;105.834;2023-02-28T15:32:38;175.93;;;89.55;;
22606;SDS011;11470;20.968;105.834;2023-02-28T15:38:01;161.25;;;82.50;;
22606;SDS011;11470;20.968;105.834;2023-02-28T15:43:14;143.40;;;75.13;;
22606;SDS011;11470;20.968;105.834;2023-02-28T15:48:42;146.88;;;80.03;;
22606;SDS011;11470;20.968;105.834;2023-02-28T15:54:15;132.93;;;71.82;;
22606;SDS011;11470;20.968;105.834;2023-02-28T15:59:32;133.32;;;73.95;;
22606;SDS011;11470;20.968;105.834;2023-02-28T16:10:06;133.15;;;67.47;;
22606;SDS011;11470;20.968;105.834;2023-02-28T16:15:18;129.02;;;70.50;;
22606;SDS011;11470;20.968;105.834;2023-02-28T16:20:29;120.90;;;66.80;;
22606;SDS011;11470;20.968;105.834;2023-02-28T16:25:40;114.35;;;61.83;;
22606;SDS011;11470;20.968;105.834;2023-02-28T16:30:51;124.30;;;69.45;;
22606;SDS011;11470;20.968;105.834;2023-02-28T16:35:59;118.72;;;63.55;;
22606;SDS011;11470;20.968;105.834;2023-02-28T16:41:06;114.60;;;65.60;;
22606;SDS011;11470;20.968;105.834;2023-02-28T16:46:15;108.78;;;57.33;;
22606;SDS011;11470;20.968;105.834;2023-02-28T16:51:22;128.27;;;72.53;;
22606;SDS011;11470;20.968;105.834;2023-02-28T16:56:29;114.45;;;66.20;;
22606;SDS011;11470;20.968;105.834;2023-02-28T17:01:38;111.05;;;66.25;;
22606;SDS011;11470;20.968;105.834;2023-02-28T17:06:44;117.43;;;67.78;;
22606;SDS011;11470;20.968;105.834;2023-02-28T17:16:57;112.25;;;63.88;;
22606;SDS011;11470;20.968;105.834;2023-02-28T17:22:03;105.95;;;62.15;;
22606;SDS011;11470;20.968;105.834;2023-02-28T17:32:17;101.95;;;61.22;;
22606;SDS011;11470;20.968;105.834;2023-02-28T17:37:24;103.38;;;57.45;;
22606;SDS011;11470;20.968;105.834;2023-02-28T17:42:31;99.20;;;55.25;;
22606;SDS011;11470;20.968;105.834;2023-02-28T17:52:43;90.32;;;54.33;;
22606;SDS011;11470;20.968;105.834;2023-02-28T17:57:50;97.93;;;58.10;;
22606;SDS011;11470;20.968;105.834;2023-02-28T18:02:56;96.53;;;60.08;;
22606;SDS011;11470;20.968;105.834;2023-02-28T18:08:02;80.05;;;44.00;;
22606;SDS011;11470;20.968;105.834;2023-02-28T18:18:16;91.95;;;55.47;;
22606;SDS011;11470;20.968;105.834;2023-02-28T18:23:23;99.70;;;54.55;;
22606;SDS011;11470;20.968;105.834;2023-02-28T18:28:29;89.22;;;53.78;;
22606;SDS011;11470;20.968;105.834;2023-02-28T18:33:38;91.03;;;53.80;;
22606;SDS011;11470;20.968;105.834;2023-02-28T18:38:44;93.72;;;52.97;;
22606;SDS011;11470;20.968;105.834;2023-02-28T18:43:51;86.50;;;51.75;;
22606;SDS011;11470;20.968;105.834;2023-02-28T18:48:57;85.13;;;48.38;;
22606;SDS011;11470;20.968;105.834;2023-02-28T18:54:05;85.95;;;51.42;;
22606;SDS011;11470;20.968;105.834;2023-02-28T18:59:11;88.40;;;51.97;;
22606;SDS011;11470;20.968;105.834;2023-02-28T19:04:18;90.93;;;52.15;;
22606;SDS011;11470;20.968;105.834;2023-02-28T19:09:24;87.22;;;54.55;;
22606;SDS011;11470;20.968;105.834;2023-02-28T19:14:32;87.30;;;51.22;;
22606;SDS011;11470;20.968;105.834;2023-02-28T19:19:38;90.20;;;49.47;;
22606;SDS011;11470;20.968;105.834;2023-02-28T19:24:45;86.18;;;48.88;;
22606;SDS011;11470;20.968;105.834;2023-02-28T19:29:53;86.35;;;51.97;;
22606;SDS011;11470;20.968;105.834;2023-02-28T19:35:02;89.43;;;51.33;;
22606;SDS011;11470;20.968;105.834;2023-02-28T19:40:10;95.03;;;54.80;;
22606;SDS011;11470;20.968;105.834;2023-02-28T19:45:17;91.70;;;52.63;;
22606;SDS011;11470;20.968;105.834;2023-02-28T19:55:29;85.47;;;51.97;;
22606;SDS011;11470;20.968;105.834;2023-02-28T20:00:36;96.53;;;54.35;;
22606;SDS011;11470;20.968;105.834;2023-02-28T20:05:43;95.40;;;53.65;;
22606;SDS011;11470;20.968;105.834;2023-02-28T20:10:50;102.00;;;54.80;;
22606;SDS011;11470;20.968;105.834;2023-02-28T20:15:58;116.50;;;59.00;;
22606;SDS011;11470;20.968;105.834;2023-02-28T20:21:10;95.35;;;54.50;;
22606;SDS011;11470;20.968;105.834;2023-02-28T20:26:17;99.40;;;54.95;;
22606;SDS011;11470;20.968;105.834;2023-02-28T20:31:24;136.82;;;65.60;;
22606;SDS011;11470;20.968;105.834;2023-02-28T20:36:31;118.47;;;62.05;;
22606;SDS011;11470;20.968;105.834;2023-02-28T20:41:38;120.28;;;60.38;;
22606;SDS011;11470;20.968;105.834;2023-02-28T20:46:44;108.05;;;55.83;;
22606;SDS011;11470;20.968;105.834;2023-02-28T20:51:50;112.57;;;59.03;;
22606;SDS011;11470;20.968;105.834;2023-02-28T20:56:56;123.85;;;62.30;;
22606;SDS011;11470;20.968;105.834;2023-02-28T21:07:08;92.78;;;53.03;;
22606;SDS011;11470;20.968;105.834;2023-02-28T21:12:14;152.20;;;65.35;;
22606;SDS011;11470;20.968;105.834;2023-02-28T21:17:21;132.52;;;61.15;;
22606;SDS011;11470;20.968;105.834;2023-02-28T21:27:33;92.22;;;51.53;;
22606;SDS011;11470;20.968;105.834;2023-02-28T21:37:45;91.40;;;50.25;;
22606;SDS011;11470;20.968;105.834;2023-02-28T21:42:52;108.60;;;56.58;;
22606;SDS011;11470;20.968;105.834;2023-02-28T21:47:59;109.95;;;56.55;;
22606;SDS011;11470;20.968;105.834;2023-02-28T21:53:06;109.45;;;57.03;;
22606;SDS011;11470;20.968;105.834;2023-02-28T21:58:12;105.43;;;55.45;;
22606;SDS011;11470;20.968;105.834;2023-02-28T22:03:19;100.10;;;53.20;;
22606;SDS011;11470;20.968;105.834;2023-02-28T22:13:32;108.00;;;54.50;;
22606;SDS011;11470;20.968;105.834;2023-02-28T22:18:39;101.22;;;51.92;;
22606;SDS011;11470;20.968;105.834;2023-02-28T22:23:47;94.70;;;50.72;;
22606;SDS011;11470;20.968;105.834;2023-02-28T22:28:53;92.82;;;49.35;;
22606;SDS011;11470;20.968;105.834;2023-02-28T22:34:04;88.00;;;43.72;;
22606;SDS011;11470;20.968;105.834;2023-02-28T22:39:12;91.65;;;47.03;;
22606;SDS011;11470;20.968;105.834;2023-02-28T22:44:18;85.40;;;46.90;;
22606;SDS011;11470;20.968;105.834;2023-02-28T22:49:26;84.95;;;43.70;;
22606;SDS011;11470;20.968;105.834;2023-02-28T22:54:32;84.43;;;44.45;;
22606;SDS011;11470;20.968;105.834;2023-02-28T22:59:39;90.65;;;46.67;;
22606;SDS011;11470;20.968;105.834;2023-02-28T23:04:45;85.38;;;44.83;;
22606;SDS011;11470;20.968;105.834;2023-02-28T23:14:58;89.13;;;46.60;;
22606;SDS011;11470;20.968;105.834;2023-02-28T23:20:05;82.43;;;45.92;;
22606;SDS011;11470;20.968;105.834;2023-02-28T23:25:12;81.20;;;45.00;;
22606;SDS011;11470;20.968;105.834;2023-02-28T23:30:18;83.38;;;47.25;;
22606;SDS011;11470;20.968;105.834;2023-02-28T23:35:24;78.90;;;47.10;;
22606;SDS011;11470;20.968;105.834;2023-02-28T23:40:31;91.82;;;48.05;;
22606;SDS011;11470;20.968;105.834;2023-02-28T23:45:37;87.47;;;49.38;;
22606;SDS011;11470;20.968;105.834;2023-02-28T23:50:46;104.57;;;57.10;;
22606;SDS011;11470;20.968;105.834;2023-02-28T23:55:52;92.70;;;51.58;;
